Time,TemperatureF,DewpointF,PressureIn,WindDirection,WindDirectionDegrees,WindSpeedMPH,WindSpeedGustMPH,Humidity,HourlyPrecipIn,Conditions,Clouds,dailyrainin,SolarRadiationWatts/m^2,SoftwareType,DateUTC
2013-07-19 00:02:00,76.3,72.0,29.82,SW,221,6.0,10.0,87,0.00,,,0.00,0,weatherlink.com 1.10,2013-07-19 05:02:00,
2013-07-19 00:18:00,76.2,72.0,29.82,SW,221,7.0,10.0,87,0.00,,,0.00,0,weatherlink.com 1.10,2013-07-19 05:18:00,
2013-07-19 00:33:00,76.6,72.0,29.81,SW,218,8.0,10.0,86,0.00,,,0.00,0,weatherlink.com 1.10,2013-07-19 05:33:00,
2013-07-19 00:48:00,77.1,72.0,29.81,SW,229,7.0,11.0,85,0.00,,,0.00,0,weatherlink.com 1.10,2013-07-19 05:48:00,
2013-07-19 01:03:00,77.5,72.0,29.81,SW,229,9.0,14.0,84,0.00,,,0.00,0,weatherlink.com 1.10,2013-07-19 06:03:00,
2013-07-19 01:18:00,77.5,72.0,29.80,SW,224,8.0,14.0,84,0.00,,,0.00,0,weatherlink.com 1.10,2013-07-19 06:18:00,
2013-07-19 01:33:00,77.3,72.0,29.80,SW,229,10.0,13.0,84,0.00,,,0.00,0,weatherlink.com 1.10,2013-07-19 06:33:00,
2013-07-19 01:48:00,76.9,72.0,29.79,SW,227,12.0,14.0,85,0.00,,,0.00,0,weatherlink.com 1.10,2013-07-19 06:48:00,
2013-07-19 02:03:00,76.6,72.0,29.79,SW,225,10.0,13.0,85,0.00,,,0.00,0,weatherlink.com 1.10,2013-07-19 07:03:00,
2013-07-19 02:18:00,76.0,72.0,29.79,SW,228,9.0,10.0,86,0.00,,,0.00,0,weatherlink.com 1.10,2013-07-19 07:18:00,
2013-07-19 02:33:00,75.8,72.0,29.78,SW,225,8.0,12.0,87,0.00,,,0.00,0,weatherlink.com 1.10,2013-07-19 07:33:00,
2013-07-19 02:48:00,75.6,72.0,29.78,SW,225,11.0,13.0,88,0.00,,,0.00,0,weatherlink.com 1.10,2013-07-19 07:48:00,
2013-07-19 03:03:00,75.5,72.0,29.77,SW,222,13.0,13.0,88,0.00,,,0.00,0,weatherlink.com 1.10,2013-07-19 08:03:00,
2013-07-19 03:18:00,75.6,72.0,29.77,SW,221,11.0,16.0,87,0.00,,,0.00,0,weatherlink.com 1.10,2013-07-19 08:18:00,
2013-07-19 03:33:00,75.3,72.0,29.77,SW,227,10.0,15.0,88,0.00,,,0.00,0,weatherlink.com 1.10,2013-07-19 08:33:00,
2013-07-19 03:48:00,75.4,71.0,29.77,SW,221,9.0,17.0,87,0.00,,,0.00,0,weatherlink.com 1.10,2013-07-19 08:48:00,
2013-07-19 04:03:00,75.4,71.0,29.76,SW,223,10.0,16.0,86,0.00,,,0.00,0,weatherlink.com 1.10,2013-07-19 09:03:00,
2013-07-19 04:18:00,75.4,71.0,29.76,SW,227,9.0,15.0,86,0.00,,,0.00,0,weatherlink.com 1.10,2013-07-19 09:18:00,
2013-07-19 04:33:00,75.2,71.0,29.75,SW,224,10.0,15.0,86,0.00,,,0.00,0,weatherlink.com 1.10,2013-07-19 09:33:00,
2013-07-19 04:48:00,74.9,71.0,29.75,SW,226,9.0,14.0,86,0.00,,,0.00,0,weatherlink.com 1.10,2013-07-19 09:48:00,
2013-07-19 05:03:00,74.9,70.0,29.75,SW,228,11.0,15.0,85,0.00,,,0.00,0,weatherlink.com 1.10,2013-07-19 10:03:00,
2013-07-19 05:18:00,74.8,70.0,29.75,SW,225,11.0,14.0,85,0.00,,,0.00,0,weatherlink.com 1.10,2013-07-19 10:18:00,
2013-07-19 05:33:00,74.9,70.0,29.75,SW,228,10.0,14.0,85,0.00,,,0.00,0,weatherlink.com 1.10,2013-07-19 10:33:00,
2013-07-19 05:48:00,74.8,70.0,29.75,SW,223,11.0,15.0,84,0.00,,,0.00,7,weatherlink.com 1.10,2013-07-19 10:48:00,
2013-07-19 06:03:00,74.8,70.0,29.75,SW,215,9.0,16.0,84,0.00,,,0.00,26,weatherlink.com 1.10,2013-07-19 11:03:00,
2013-07-19 06:18:00,75.0,70.0,29.75,SW,232,13.0,15.0,83,0.00,,,0.00,47,weatherlink.com 1.10,2013-07-19 11:18:00,
2013-07-19 06:33:00,75.3,70.0,29.76,SW,227,13.0,17.0,83,0.00,,,0.00,93,weatherlink.com 1.10,2013-07-19 11:33:00,
2013-07-19 06:48:00,75.7,70.0,29.76,SW,229,13.0,19.0,83,0.00,,,0.00,67,weatherlink.com 1.10,2013-07-19 11:48:00,
2013-07-19 07:03:00,76.2,70.0,29.76,SW,235,10.0,17.0,82,0.00,,,0.00,151,weatherlink.com 1.10,2013-07-19 12:03:00,
2013-07-19 07:18:00,76.7,71.0,29.75,SW,234,13.0,18.0,81,0.00,,,0.00,190,weatherlink.com 1.10,2013-07-19 12:18:00,
2013-07-19 07:33:00,77.2,71.0,29.76,SW,236,14.0,18.0,81,0.00,,,0.00,253,weatherlink.com 1.10,2013-07-19 12:33:00,
2013-07-19 07:49:00,77.4,71.0,29.76,WSW,251,11.0,16.0,80,0.00,,,0.00,297,weatherlink.com 1.10,2013-07-19 12:49:00,
2013-07-19 08:04:00,78.7,72.0,29.76,WSW,252,8.0,16.0,81,0.00,,,0.00,206,weatherlink.com 1.10,2013-07-19 13:04:00,
2013-07-19 08:19:00,78.6,71.0,29.77,WSW,247,7.0,16.0,77,0.00,,,0.00,98,weatherlink.com 1.10,2013-07-19 13:19:00,
2013-07-19 08:34:00,78.3,71.0,29.77,WSW,248,12.0,16.0,77,0.00,,,0.00,123,weatherlink.com 1.10,2013-07-19 13:34:00,
2013-07-19 08:49:00,78.8,72.0,29.77,WSW,244,10.0,14.0,79,0.00,,,0.00,454,weatherlink.com 1.10,2013-07-19 13:49:00,
2013-07-19 09:04:00,79.9,72.0,29.77,SW,235,9.0,15.0,77,0.00,,,0.00,533,weatherlink.com 1.10,2013-07-19 14:04:00,
2013-07-19 09:19:00,80.8,72.0,29.76,WSW,244,13.0,16.0,75,0.00,,,0.00,608,weatherlink.com 1.10,2013-07-19 14:19:00,
2013-07-19 09:34:00,81.9,73.0,29.76,WSW,250,10.0,13.0,74,0.00,,,0.00,628,weatherlink.com 1.10,2013-07-19 14:34:00,
2013-07-19 09:49:00,81.7,73.0,29.75,WSW,238,8.0,20.0,75,0.00,,,0.00,749,weatherlink.com 1.10,2013-07-19 14:49:00,
2013-07-19 10:04:00,82.3,73.0,29.75,WSW,250,11.0,16.0,73,0.00,,,0.00,336,weatherlink.com 1.10,2013-07-19 15:04:00,
2013-07-19 10:19:00,81.3,73.0,29.74,West,259,10.0,18.0,76,0.00,,,0.00,381,weatherlink.com 1.10,2013-07-19 15:19:00,
2013-07-19 10:34:00,81.6,73.0,29.75,West,265,6.0,17.0,74,0.00,,,0.00,543,weatherlink.com 1.10,2013-07-19 15:34:00,
2013-07-19 10:50:00,82.1,73.0,29.74,WSW,257,9.0,19.0,74,0.00,,,0.00,780,weatherlink.com 1.10,2013-07-19 15:50:00,
2013-07-19 11:04:00,83.4,73.0,29.74,WSW,242,17.0,21.0,71,0.00,,,0.00,812,weatherlink.com 1.10,2013-07-19 16:04:00,
2013-07-19 11:19:00,84.1,74.0,29.74,WSW,238,14.0,19.0,71,0.00,,,0.00,519,weatherlink.com 1.10,2013-07-19 16:19:00,
2013-07-19 11:34:00,84.6,74.0,29.73,WSW,242,11.0,19.0,71,0.00,,,0.00,1097,weatherlink.com 1.10,2013-07-19 16:34:00,
2013-07-19 11:49:00,84.6,73.0,29.73,WSW,239,11.0,19.0,69,0.00,,,0.00,397,weatherlink.com 1.10,2013-07-19 16:49:00,
2013-07-19 12:04:00,83.4,72.0,29.73,SW,234,13.0,18.0,69,0.00,,,0.00,425,weatherlink.com 1.10,2013-07-19 17:04:00,
2013-07-19 12:19:00,83.8,74.0,29.72,SSW,213,13.0,17.0,73,0.00,,,0.00,482,weatherlink.com 1.10,2013-07-19 17:19:00,
2013-07-19 12:34:00,84.8,74.0,29.72,WSW,251,11.0,18.0,71,0.00,,,0.00,1002,weatherlink.com 1.10,2013-07-19 17:34:00,
2013-07-19 12:49:00,85.0,74.0,29.71,West,263,9.0,18.0,69,0.00,,,0.00,636,weatherlink.com 1.10,2013-07-19 17:49:00,
2013-07-19 13:04:00,84.9,73.0,29.72,SW,236,20.0,21.0,67,0.00,,,0.00,503,weatherlink.com 1.10,2013-07-19 18:04:00,
2013-07-19 13:19:00,84.3,72.0,29.72,West,270,4.0,21.0,67,0.00,,,0.00,452,weatherlink.com 1.10,2013-07-19 18:19:00,
2013-07-19 13:34:00,84.5,74.0,29.71,WSW,254,9.0,16.0,71,0.00,,,0.00,907,weatherlink.com 1.10,2013-07-19 18:34:00,
2013-07-19 13:49:00,85.4,75.0,29.71,WSW,246,16.0,22.0,70,0.00,,,0.00,1060,weatherlink.com 1.10,2013-07-19 18:49:00,
2013-07-19 14:04:00,85.7,74.0,29.71,WSW,245,8.0,17.0,69,0.00,,,0.00,763,weatherlink.com 1.10,2013-07-19 19:04:00,
2013-07-19 14:19:00,85.6,74.0,29.71,WSW,249,6.0,20.0,69,0.00,,,0.00,527,weatherlink.com 1.10,2013-07-19 19:19:00,
2013-07-19 14:34:00,85.9,74.0,29.71,West,263,10.0,22.0,67,0.00,,,0.00,761,weatherlink.com 1.10,2013-07-19 19:34:00,
2013-07-19 14:49:00,85.7,73.0,29.70,WSW,249,8.0,16.0,66,0.00,,,0.00,543,weatherlink.com 1.10,2013-07-19 19:49:00,
2013-07-19 15:04:00,86.2,74.0,29.70,WNW,286,7.0,20.0,67,0.00,,,0.00,884,weatherlink.com 1.10,2013-07-19 20:04:00,
2013-07-19 15:19:00,86.7,74.0,29.70,WNW,290,8.0,15.0,67,0.00,,,0.00,798,weatherlink.com 1.10,2013-07-19 20:19:00,
2013-07-19 15:34:00,87.1,75.0,29.69,WSW,244,17.0,21.0,67,0.00,,,0.00,740,weatherlink.com 1.10,2013-07-19 20:34:00,
2013-07-19 15:49:00,86.7,73.0,29.69,WSW,256,9.0,20.0,64,0.00,,,0.00,283,weatherlink.com 1.10,2013-07-19 20:49:00,
2013-07-19 16:20:00,87.7,74.0,29.68,WSW,256,13.0,16.0,64,0.00,,,0.00,636,weatherlink.com 1.10,2013-07-19 21:20:00,
2013-07-19 16:35:00,87.6,75.0,29.68,WNW,286,7.0,18.0,66,0.00,,,0.00,601,weatherlink.com 1.10,2013-07-19 21:35:00,
2013-07-19 16:50:00,87.3,74.0,29.68,WSW,257,4.0,16.0,64,0.00,,,0.00,559,weatherlink.com 1.10,2013-07-19 21:50:00,
2013-07-19 17:05:00,87.2,74.0,29.67,West,280,9.0,18.0,65,0.00,,,0.00,519,weatherlink.com 1.10,2013-07-19 22:05:00,
2013-07-19 17:20:00,87.3,75.0,29.68,WSW,247,8.0,16.0,66,0.00,,,0.00,515,weatherlink.com 1.10,2013-07-19 22:20:00,
2013-07-19 17:35:00,86.6,75.0,29.67,WNW,303,7.0,14.0,69,0.00,,,0.00,497,weatherlink.com 1.10,2013-07-19 22:35:00,
2013-07-19 17:50:00,86.9,75.0,29.67,WNW,286,9.0,20.0,68,0.00,,,0.00,396,weatherlink.com 1.10,2013-07-19 22:50:00,
2013-07-19 18:05:00,86.8,75.0,29.67,West,274,6.0,15.0,68,0.00,,,0.00,353,weatherlink.com 1.10,2013-07-19 23:05:00,
2013-07-19 18:20:00,87.0,74.0,29.66,WNW,297,10.0,11.0,66,0.00,,,0.00,309,weatherlink.com 1.10,2013-07-19 23:20:00,
2013-07-19 18:36:00,86.5,72.0,29.66,WNW,297,9.0,16.0,62,0.00,,,0.00,113,weatherlink.com 1.10,2013-07-19 23:36:00,
2013-07-19 18:50:00,86.1,72.0,29.66,West,275,7.0,11.0,62,0.00,,,0.00,229,weatherlink.com 1.10,2013-07-19 23:50:00,
2013-07-19 19:05:00,86.0,72.0,29.66,WNW,294,3.0,10.0,64,0.00,,,0.00,178,weatherlink.com 1.10,2013-07-20 00:05:00,
2013-07-19 19:20:00,85.8,73.0,29.66,West,260,1.0,6.0,66,0.00,,,0.00,141,weatherlink.com 1.10,2013-07-20 00:20:00,
2013-07-19 19:35:00,84.7,73.0,29.67,WSW,246,6.0,7.0,69,0.00,,,0.00,44,weatherlink.com 1.10,2013-07-20 00:35:00,
2013-07-19 19:50:00,83.9,73.0,29.67,WNW,297,9.0,10.0,70,0.00,,,0.00,67,weatherlink.com 1.10,2013-07-20 00:50:00,
2013-07-19 20:05:00,83.4,73.0,29.67,WNW,294,7.0,13.0,70,0.00,,,0.00,40,weatherlink.com 1.10,2013-07-20 01:05:00,
2013-07-19 20:20:00,81.3,72.0,29.68,NW,322,6.0,10.0,74,0.00,,,0.00,18,weatherlink.com 1.10,2013-07-20 01:20:00,
2013-07-19 20:35:00,79.7,71.0,29.67,NW,320,6.0,10.0,75,0.00,,,0.00,5,weatherlink.com 1.10,2013-07-20 01:35:00,
2013-07-19 20:50:00,78.0,70.0,29.68,NW,311,6.0,9.0,77,0.00,,,0.00,0,weatherlink.com 1.10,2013-07-20 01:50:00,
2013-07-19 21:05:00,76.8,69.0,29.69,WNW,300,2.0,5.0,78,0.00,,,0.00,0,weatherlink.com 1.10,2013-07-20 02:05:00,
2013-07-19 21:20:00,76.2,69.0,29.70,WNW,300,0.0,4.0,78,0.00,,,0.00,0,weatherlink.com 1.10,2013-07-20 02:20:00,
2013-07-19 21:35:00,75.5,68.0,29.71,WNW,300,4.0,5.0,78,0.00,,,0.00,0,weatherlink.com 1.10,2013-07-20 02:35:00,
2013-07-19 21:50:00,73.9,67.0,29.72,WNW,300,7.0,8.0,80,0.00,,,0.00,0,weatherlink.com 1.10,2013-07-20 02:50:00,
2013-07-19 22:05:00,73.1,67.0,29.73,WNW,301,4.0,7.0,81,0.00,,,0.00,0,weatherlink.com 1.10,2013-07-20 03:05:00,
2013-07-19 22:20:00,72.1,66.0,29.73,WNW,302,4.0,5.0,82,0.00,,,0.00,0,weatherlink.com 1.10,2013-07-20 03:20:00,
2013-07-19 22:35:00,71.9,66.0,29.73,WNW,302,3.0,4.0,81,0.00,,,0.00,0,weatherlink.com 1.10,2013-07-20 03:35:00,
2013-07-19 22:50:00,72.4,66.0,29.73,WNW,302,0.0,4.0,79,0.00,,,0.00,0,weatherlink.com 1.10,2013-07-20 03:50:00,
2013-07-19 23:05:00,71.7,65.0,29.74,WNW,302,0.0,1.0,80,0.00,,,0.00,0,weatherlink.com 1.10,2013-07-20 04:05:00,
2013-07-19 23:20:00,70.2,64.0,29.75,WNW,302,0.0,0.0,81,0.00,,,0.00,0,weatherlink.com 1.10,2013-07-20 04:20:00,
2013-07-19 23:35:00,68.9,64.0,29.75,WNW,302,0.0,0.0,84,0.00,,,0.00,0,weatherlink.com 1.10,2013-07-20 04:35:00,
2013-07-19 23:51:00,67.8,64.0,29.75,WNW,302,0.0,0.0,87,0.00,,,0.00,0,weatherlink.com 1.10,2013-07-20 04:51:00,